sensor_id;sensor_type;location;lat;lon;timestamp;P1;durP1;ratioP1;P2;durP2;ratioP2
43809;SDS011;29440;48.208;11.162;2024-02-15T00:00:35;3.15;;;0.90;;
43809;SDS011;29440;48.208;11.162;2024-02-15T00:03:02;1.48;;;0.80;;
43809;SDS011;29440;48.208;11.162;2024-02-15T00:05:29;3.83;;;0.80;;
43809;SDS011;29440;48.208;11.162;2024-02-15T00:07:54;1.20;;;0.60;;
43809;SDS011;29440;48.208;11.162;2024-02-15T00:10:20;2.05;;;0.77;;
43809;SDS011;29440;48.208;11.162;2024-02-15T00:12:49;2.03;;;0.70;;
43809;SDS011;29440;48.208;11.162;2024-02-15T00:15:16;1.77;;;0.75;;
43809;SDS011;29440;48.208;11.162;2024-02-15T00:17:41;2.03;;;0.85;;
43809;SDS011;29440;48.208;11.162;2024-02-15T00:20:07;2.67;;;0.70;;
43809;SDS011;29440;48.208;11.162;2024-02-15T00:22:34;2.88;;;0.82;;
43809;SDS011;29440;48.208;11.162;2024-02-15T00:25:01;2.28;;;0.70;;
43809;SDS011;29440;48.208;11.162;2024-02-15T00:27:26;1.92;;;1.20;;
43809;SDS011;29440;48.208;11.162;2024-02-15T00:29:52;2.67;;;0.70;;
43809;SDS011;29440;48.208;11.162;2024-02-15T00:32:17;1.80;;;0.85;;
43809;SDS011;29440;48.208;11.162;2024-02-15T00:34:43;1.77;;;0.50;;
43809;SDS011;29440;48.208;11.162;2024-02-15T00:37:08;1.60;;;0.70;;
43809;SDS011;29440;48.208;11.162;2024-02-15T00:39:34;1.40;;;0.63;;
43809;SDS011;29440;48.208;11.162;2024-02-15T00:41:59;2.30;;;0.68;;
43809;SDS011;29440;48.208;11.162;2024-02-15T00:44:25;1.83;;;0.70;;
43809;SDS011;29440;48.208;11.162;2024-02-15T00:46:51;1.42;;;0.63;;
43809;SDS011;29440;48.208;11.162;2024-02-15T00:49:17;2.85;;;0.93;;
43809;SDS011;29440;48.208;11.162;2024-02-15T00:51:45;1.35;;;0.75;;
43809;SDS011;29440;48.208;11.162;2024-02-15T00:54:11;2.60;;;0.82;;
43809;SDS011;29440;48.208;11.162;2024-02-15T00:56:37;1.92;;;0.70;;
43809;SDS011;29440;48.208;11.162;2024-02-15T00:59:02;4.38;;;0.68;;
43809;SDS011;29440;48.208;11.162;2024-02-15T01:01:28;1.42;;;0.70;;
43809;SDS011;29440;48.208;11.162;2024-02-15T01:03:54;1.58;;;0.70;;
43809;SDS011;29440;48.208;11.162;2024-02-15T01:06:19;1.10;;;0.57;;
43809;SDS011;29440;48.208;11.162;2024-02-15T01:08:45;1.52;;;0.80;;
43809;SDS011;29440;48.208;11.162;2024-02-15T01:11:10;1.65;;;0.70;;
43809;SDS011;29440;48.208;11.162;2024-02-15T01:13:36;1.83;;;0.90;;
43809;SDS011;29440;48.208;11.162;2024-02-15T01:16:02;2.70;;;0.90;;
43809;SDS011;29440;48.208;11.162;2024-02-15T01:18:28;0.88;;;0.50;;
43809;SDS011;29440;48.208;11.162;2024-02-15T01:20:55;2.22;;;0.90;;
43809;SDS011;29440;48.208;11.162;2024-02-15T01:23:21;1.38;;;0.80;;
43809;SDS011;29440;48.208;11.162;2024-02-15T01:25:47;1.98;;;0.80;;
43809;SDS011;29440;48.208;11.162;2024-02-15T01:28:13;1.42;;;0.90;;
43809;SDS011;29440;48.208;11.162;2024-02-15T01:30:39;1.67;;;0.70;;
43809;SDS011;29440;48.208;11.162;2024-02-15T01:33:05;1.50;;;0.70;;
43809;SDS011;29440;48.208;11.162;2024-02-15T01:35:30;2.55;;;1.00;;
43809;SDS011;29440;48.208;11.162;2024-02-15T01:37:56;2.38;;;0.85;;
43809;SDS011;29440;48.208;11.162;2024-02-15T01:40:21;2.95;;;0.80;;
43809;SDS011;29440;48.208;11.162;2024-02-15T01:42:47;1.45;;;0.70;;
43809;SDS011;29440;48.208;11.162;2024-02-15T01:45:14;2.15;;;0.90;;
43809;SDS011;29440;48.208;11.162;2024-02-15T01:47:40;1.85;;;0.93;;
43809;SDS011;29440;48.208;11.162;2024-02-15T01:50:07;3.05;;;1.08;;
43809;SDS011;29440;48.208;11.162;2024-02-15T01:52:37;2.00;;;1.00;;
43809;SDS011;29440;48.208;11.162;2024-02-15T01:55:03;1.85;;;0.93;;
43809;SDS011;29440;48.208;11.162;2024-02-15T01:57:33;3.25;;;1.00;;
43809;SDS011;29440;48.208;11.162;2024-02-15T02:00:01;1.67;;;0.80;;
43809;SDS011;29440;48.208;11.162;2024-02-15T02:02:27;1.15;;;0.60;;
43809;SDS011;29440;48.208;11.162;2024-02-15T02:04:57;2.15;;;0.90;;
43809;SDS011;29440;48.208;11.162;2024-02-15T02:07:23;3.22;;;0.80;;
43809;SDS011;29440;48.208;11.162;2024-02-15T02:09:48;2.80;;;1.10;;
43809;SDS011;29440;48.208;11.162;2024-02-15T02:12:14;1.90;;;0.82;;
43809;SDS011;29440;48.208;11.162;2024-02-15T02:14:41;1.55;;;0.70;;
43809;SDS011;29440;48.208;11.162;2024-02-15T02:17:10;1.48;;;0.85;;
43809;SDS011;29440;48.208;11.162;2024-02-15T02:19:39;1.73;;;0.77;;
43809;SDS011;29440;48.208;11.162;2024-02-15T02:22:05;2.08;;;0.90;;
43809;SDS011;29440;48.208;11.162;2024-02-15T02:24:34;1.63;;;0.73;;
43809;SDS011;29440;48.208;11.162;2024-02-15T02:27:05;3.17;;;0.90;;
43809;SDS011;29440;48.208;11.162;2024-02-15T02:29:33;4.45;;;1.10;;
43809;SDS011;29440;48.208;11.162;2024-02-15T02:31:59;3.33;;;1.10;;
43809;SDS011;29440;48.208;11.162;2024-02-15T02:34:24;4.15;;;1.10;;
43809;SDS011;29440;48.208;11.162;2024-02-15T02:36:50;2.58;;;1.02;;
43809;SDS011;29440;48.208;11.162;2024-02-15T02:39:16;1.95;;;1.13;;
43809;SDS011;29440;48.208;11.162;2024-02-15T02:41:42;2.08;;;0.90;;
43809;SDS011;29440;48.208;11.162;2024-02-15T02:44:08;2.65;;;1.00;;
43809;SDS011;29440;48.208;11.162;2024-02-15T02:46:34;2.53;;;1.25;;
43809;SDS011;29440;48.208;11.162;2024-02-15T02:48:59;3.00;;;1.15;;
43809;SDS011;29440;48.208;11.162;2024-02-15T02:51:25;3.28;;;1.38;;
43809;SDS011;29440;48.208;11.162;2024-02-15T02:53:50;1.90;;;1.10;;
43809;SDS011;29440;48.208;11.162;2024-02-15T02:56:16;1.95;;;0.90;;
43809;SDS011;29440;48.208;11.162;2024-02-15T02:58:43;2.17;;;1.17;;
43809;SDS011;29440;48.208;11.162;2024-02-15T03:01:09;3.28;;;1.08;;
43809;SDS011;29440;48.208;11.162;2024-02-15T03:03:36;3.75;;;1.05;;
43809;SDS011;29440;48.208;11.162;2024-02-15T03:06:03;2.35;;;1.10;;
43809;SDS011;29440;48.208;11.162;2024-02-15T03:08:29;2.50;;;1.08;;
43809;SDS011;29440;48.208;11.162;2024-02-15T03:10:55;2.92;;;0.98;;
43809;SDS011;29440;48.208;11.162;2024-02-15T03:13:20;2.55;;;1.40;;
43809;SDS011;29440;48.208;11.162;2024-02-15T03:15:46;2.63;;;1.08;;
43809;SDS011;29440;48.208;11.162;2024-02-15T03:18:14;2.33;;;1.00;;
43809;SDS011;29440;48.208;11.162;2024-02-15T03:20:41;3.20;;;1.02;;
43809;SDS011;29440;48.208;11.162;2024-02-15T03:23:07;3.42;;;1.30;;
43809;SDS011;29440;48.208;11.162;2024-02-15T03:25:32;2.45;;;1.10;;
43809;SDS011;29440;48.208;11.162;2024-02-15T03:27:59;2.42;;;1.20;;
43809;SDS011;29440;48.208;11.162;2024-02-15T03:30:29;4.68;;;0.90;;
43809;SDS011;29440;48.208;11.162;2024-02-15T03:32:56;2.00;;;1.17;;
43809;SDS011;29440;48.208;11.162;2024-02-15T03:35:24;2.85;;;1.10;;
43809;SDS011;29440;48.208;11.162;2024-02-15T03:37:51;3.03;;;0.95;;
43809;SDS011;29440;48.208;11.162;2024-02-15T03:40:21;2.58;;;1.00;;
43809;SDS011;29440;48.208;11.162;2024-02-15T03:42:48;2.10;;;1.20;;
43809;SDS011;29440;48.208;11.162;2024-02-15T03:45:15;1.88;;;1.13;;
43809;SDS011;29440;48.208;11.162;2024-02-15T03:47:41;2.28;;;1.20;;
43809;SDS011;29440;48.208;11.162;2024-02-15T03:50:07;1.85;;;1.10;;
43809;SDS011;29440;48.208;11.162;2024-02-15T03:52:37;2.13;;;0.90;;
43809;SDS011;29440;48.208;11.162;2024-02-15T03:55:03;2.90;;;1.02;;
43809;SDS011;29440;48.208;11.162;2024-02-15T03:57:30;2.30;;;1.15;;
43809;SDS011;29440;48.208;11.162;2024-02-15T03:59:56;1.80;;;0.77;;
43809;SDS011;29440;48.208;11.162;2024-02-15T04:02:22;2.00;;;1.08;;
43809;SDS011;29440;48.208;11.162;2024-02-15T04:04:51;2.10;;;0.90;;
43809;SDS011;29440;48.208;11.162;2024-02-15T04:07:20;2.25;;;0.90;;
43809;SDS011;29440;48.208;11.162;2024-02-15T04:09:48;2.08;;;0.90;;
43809;SDS011;29440;48.208;11.162;2024-02-15T04:12:14;2.50;;;1.00;;
43809;SDS011;29440;48.208;11.162;2024-02-15T04:14:40;2.25;;;0.90;;
43809;SDS011;29440;48.208;11.162;2024-02-15T04:17:06;2.72;;;1.15;;
43809;SDS011;29440;48.208;11.162;2024-02-15T04:19:32;2.83;;;1.30;;
43809;SDS011;29440;48.208;11.162;2024-02-15T04:21:58;3.90;;;1.40;;
43809;SDS011;29440;48.208;11.162;2024-02-15T04:24:26;2.30;;;0.90;;
43809;SDS011;29440;48.208;11.162;2024-02-15T04:26:51;3.22;;;1.15;;
43809;SDS011;29440;48.208;11.162;2024-02-15T04:29:17;5.10;;;1.00;;
43809;SDS011;29440;48.208;11.162;2024-02-15T04:31:45;2.78;;;1.23;;
43809;SDS011;29440;48.208;11.162;2024-02-15T04:34:14;3.78;;;1.23;;
43809;SDS011;29440;48.208;11.162;2024-02-15T04:36:40;1.70;;;0.90;;
43809;SDS011;29440;48.208;11.162;2024-02-15T04:39:05;2.20;;;1.00;;
43809;SDS011;29440;48.208;11.162;2024-02-15T04:41:31;5.05;;;1.25;;
43809;SDS011;29440;48.208;11.162;2024-02-15T04:43:57;2.85;;;0.95;;
43809;SDS011;29440;48.208;11.162;2024-02-15T04:46:22;2.00;;;1.00;;
43809;SDS011;29440;48.208;11.162;2024-02-15T04:48:49;2.38;;;1.05;;
43809;SDS011;29440;48.208;11.162;2024-02-15T04:51:15;2.13;;;1.13;;
43809;SDS011;29440;48.208;11.162;2024-02-15T04:53:41;3.85;;;1.30;;
43809;SDS011;29440;48.208;11.162;2024-02-15T04:56:07;2.83;;;1.30;;
43809;SDS011;29440;48.208;11.162;2024-02-15T04:58:39;3.05;;;1.10;;
43809;SDS011;29440;48.208;11.162;2024-02-15T05:01:19;2.13;;;1.10;;
43809;SDS011;29440;48.208;11.162;2024-02-15T05:03:45;2.40;;;1.10;;
43809;SDS011;29440;48.208;11.162;2024-02-15T05:06:11;2.22;;;1.10;;
43809;SDS011;29440;48.208;11.162;2024-02-15T05:08:40;2.20;;;1.00;;
43809;SDS011;29440;48.208;11.162;2024-02-15T05:11:12;3.42;;;0.80;;
43809;SDS011;29440;48.208;11.162;2024-02-15T05:13:42;4.17;;;1.00;;
43809;SDS011;29440;48.208;11.162;2024-02-15T05:16:09;2.22;;;0.90;;
43809;SDS011;29440;48.208;11.162;2024-02-15T05:18:35;2.13;;;1.00;;
43809;SDS011;29440;48.208;11.162;2024-02-15T05:21:02;2.08;;;0.95;;
43809;SDS011;29440;48.208;11.162;2024-02-15T05:23:29;3.05;;;0.90;;
43809;SDS011;29440;48.208;11.162;2024-02-15T05:25:55;2.13;;;0.80;;
43809;SDS011;29440;48.208;11.162;2024-02-15T05:28:21;3.00;;;0.85;;
43809;SDS011;29440;48.208;11.162;2024-02-15T05:31:07;4.25;;;1.85;;
43809;SDS011;29440;48.208;11.162;2024-02-15T05:33:37;2.28;;;1.30;;
43809;SDS011;29440;48.208;11.162;2024-02-15T05:36:08;2.92;;;1.00;;
43809;SDS011;29440;48.208;11.162;2024-02-15T05:38:38;3.25;;;1.33;;
43809;SDS011;29440;48.208;11.162;2024-02-15T05:41:04;2.28;;;1.30;;
43809;SDS011;29440;48.208;11.162;2024-02-15T05:43:31;6.30;;;1.20;;
43809;SDS011;29440;48.208;11.162;2024-02-15T05:45:57;1.60;;;0.98;;
43809;SDS011;29440;48.208;11.162;2024-02-15T05:48:24;2.33;;;0.70;;
43809;SDS011;29440;48.208;11.162;2024-02-15T05:50:49;2.80;;;1.10;;
43809;SDS011;29440;48.208;11.162;2024-02-15T05:53:15;1.90;;;0.80;;
43809;SDS011;29440;48.208;11.162;2024-02-15T05:55:41;6.45;;;2.38;;
43809;SDS011;29440;48.208;11.162;2024-02-15T05:58:09;5.28;;;1.88;;
43809;SDS011;29440;48.208;11.162;2024-02-15T06:00:36;6.50;;;1.20;;
43809;SDS011;29440;48.208;11.162;2024-02-15T06:03:04;4.07;;;1.75;;
43809;SDS011;29440;48.208;11.162;2024-02-15T06:05:31;8.60;;;3.75;;
43809;SDS011;29440;48.208;11.162;2024-02-15T06:07:57;13.80;;;5.45;;
43809;SDS011;29440;48.208;11.162;2024-02-15T06:10:23;15.48;;;5.50;;
43809;SDS011;29440;48.208;11.162;2024-02-15T06:12:50;10.45;;;4.20;;
43809;SDS011;29440;48.208;11.162;2024-02-15T06:15:16;8.40;;;2.95;;
43809;SDS011;29440;48.208;11.162;2024-02-15T06:17:42;14.60;;;5.45;;
43809;SDS011;29440;48.208;11.162;2024-02-15T06:20:10;16.48;;;6.20;;
43809;SDS011;29440;48.208;11.162;2024-02-15T06:22:39;5.28;;;2.58;;
43809;SDS011;29440;48.208;11.162;2024-02-15T06:25:05;2.90;;;1.30;;
43809;SDS011;29440;48.208;11.162;2024-02-15T06:27:31;2.65;;;0.98;;
43809;SDS011;29440;48.208;11.162;2024-02-15T06:29:57;2.72;;;1.10;;
43809;SDS011;29440;48.208;11.162;2024-02-15T06:32:42;1.48;;;0.90;;
43809;SDS011;29440;48.208;11.162;2024-02-15T06:38:10;2.40;;;0.90;;
43809;SDS011;29440;48.208;11.162;2024-02-15T06:40:54;3.10;;;0.88;;
43809;SDS011;29440;48.208;11.162;2024-02-15T06:43:20;8.63;;;1.30;;
43809;SDS011;29440;48.208;11.162;2024-02-15T06:45:46;2.38;;;1.33;;
43809;SDS011;29440;48.208;11.162;2024-02-15T06:48:12;5.72;;;2.28;;
43809;SDS011;29440;48.208;11.162;2024-02-15T06:50:38;8.05;;;2.83;;
43809;SDS011;29440;48.208;11.162;2024-02-15T06:53:04;17.73;;;5.97;;
43809;SDS011;29440;48.208;11.162;2024-02-15T06:55:30;14.27;;;5.30;;
43809;SDS011;29440;48.208;11.162;2024-02-15T06:57:55;11.70;;;4.82;;
43809;SDS011;29440;48.208;11.162;2024-02-15T07:00:21;3.65;;;1.55;;
43809;SDS011;29440;48.208;11.162;2024-02-15T07:02:47;2.33;;;0.98;;
43809;SDS011;29440;48.208;11.162;2024-02-15T07:05:13;3.65;;;1.20;;
43809;SDS011;29440;48.208;11.162;2024-02-15T07:07:39;4.20;;;1.13;;
43809;SDS011;29440;48.208;11.162;2024-02-15T07:10:07;8.00;;;1.20;;
43809;SDS011;29440;48.208;11.162;2024-02-15T07:12:34;4.10;;;1.65;;
43809;SDS011;29440;48.208;11.162;2024-02-15T07:15:00;5.22;;;0.95;;
43809;SDS011;29440;48.208;11.162;2024-02-15T07:17:28;1.77;;;0.75;;
43809;SDS011;29440;48.208;11.162;2024-02-15T07:19:54;10.15;;;2.55;;
43809;SDS011;29440;48.208;11.162;2024-02-15T07:22:20;9.15;;;1.98;;
43809;SDS011;29440;48.208;11.162;2024-02-15T07:24:47;3.72;;;1.02;;
43809;SDS011;29440;48.208;11.162;2024-02-15T07:27:12;3.28;;;0.80;;
43809;SDS011;29440;48.208;11.162;2024-02-15T07:29:38;2.00;;;0.70;;
43809;SDS011;29440;48.208;11.162;2024-02-15T07:32:07;2.63;;;1.00;;
43809;SDS011;29440;48.208;11.162;2024-02-15T07:34:33;1.20;;;0.60;;
43809;SDS011;29440;48.208;11.162;2024-02-15T07:36:59;1.17;;;0.60;;
43809;SDS011;29440;48.208;11.162;2024-02-15T07:39:27;2.30;;;0.65;;
43809;SDS011;29440;48.208;11.162;2024-02-15T07:41:56;4.47;;;1.00;;
43809;SDS011;29440;48.208;11.162;2024-02-15T07:44:23;1.77;;;0.70;;
43809;SDS011;29440;48.208;11.162;2024-02-15T07:46:49;3.90;;;0.90;;
43809;SDS011;29440;48.208;11.162;2024-02-15T07:49:15;1.40;;;0.55;;
43809;SDS011;29440;48.208;11.162;2024-02-15T07:51:42;5.13;;;0.65;;
43809;SDS011;29440;48.208;11.162;2024-02-15T07:54:09;1.13;;;0.70;;
43809;SDS011;29440;48.208;11.162;2024-02-15T07:56:35;1.88;;;0.50;;
43809;SDS011;29440;48.208;11.162;2024-02-15T07:59:01;2.80;;;0.73;;
43809;SDS011;29440;48.208;11.162;2024-02-15T08:01:27;1.80;;;0.80;;
43809;SDS011;29440;48.208;11.162;2024-02-15T08:03:55;1.42;;;0.50;;
43809;SDS011;29440;48.208;11.162;2024-02-15T08:06:21;1.52;;;1.00;;
43809;SDS011;29440;48.208;11.162;2024-02-15T08:08:50;1.88;;;0.60;;
43809;SDS011;29440;48.208;11.162;2024-02-15T08:11:17;3.28;;;0.50;;
43809;SDS011;29440;48.208;11.162;2024-02-15T08:13:50;4.20;;;0.60;;
43809;SDS011;29440;48.208;11.162;2024-02-15T08:16:19;2.42;;;0.77;;
43809;SDS011;29440;48.208;11.162;2024-02-15T08:18:52;1.63;;;0.52;;
43809;SDS011;29440;48.208;11.162;2024-02-15T08:21:24;5.57;;;0.60;;
43809;SDS011;29440;48.208;11.162;2024-02-15T08:23:57;3.33;;;0.65;;
43809;SDS011;29440;48.208;11.162;2024-02-15T08:26:27;2.50;;;0.70;;
43809;SDS011;29440;48.208;11.162;2024-02-15T08:28:54;4.15;;;0.52;;
43809;SDS011;29440;48.208;11.162;2024-02-15T08:31:21;1.13;;;0.60;;
43809;SDS011;29440;48.208;11.162;2024-02-15T08:33:46;1.08;;;0.60;;
43809;SDS011;29440;48.208;11.162;2024-02-15T08:36:12;1.38;;;0.70;;
43809;SDS011;29440;48.208;11.162;2024-02-15T08:38:40;0.98;;;0.60;;
43809;SDS011;29440;48.208;11.162;2024-02-15T08:41:06;0.68;;;0.40;;
43809;SDS011;29440;48.208;11.162;2024-02-15T08:43:33;0.95;;;0.82;;
43809;SDS011;29440;48.208;11.162;2024-02-15T08:45:59;1.38;;;0.70;;
43809;SDS011;29440;48.208;11.162;2024-02-15T08:48:26;1.33;;;0.50;;
43809;SDS011;29440;48.208;11.162;2024-02-15T08:50:51;1.30;;;0.65;;
43809;SDS011;29440;48.208;11.162;2024-02-15T08:53:17;1.05;;;0.60;;
43809;SDS011;29440;48.208;11.162;2024-02-15T08:55:44;3.97;;;1.80;;
43809;SDS011;29440;48.208;11.162;2024-02-15T08:58:10;1.45;;;0.60;;
43809;SDS011;29440;48.208;11.162;2024-02-15T09:00:36;1.60;;;0.60;;
43809;SDS011;29440;48.208;11.162;2024-02-15T09:03:06;1.10;;;0.50;;
43809;SDS011;29440;48.208;11.162;2024-02-15T09:05:32;0.73;;;0.40;;
43809;SDS011;29440;48.208;11.162;2024-02-15T09:07:57;2.60;;;0.70;;
43809;SDS011;29440;48.208;11.162;2024-02-15T09:10:23;2.90;;;0.70;;
43809;SDS011;29440;48.208;11.162;2024-02-15T09:12:48;1.52;;;0.60;;
43809;SDS011;29440;48.208;11.162;2024-02-15T09:15:14;2.22;;;0.60;;
43809;SDS011;29440;48.208;11.162;2024-02-15T09:17:41;2.95;;;0.52;;
43809;SDS011;29440;48.208;11.162;2024-02-15T09:20:08;3.08;;;0.50;;
43809;SDS011;29440;48.208;11.162;2024-02-15T09:22:43;1.60;;;0.70;;
43809;SDS011;29440;48.208;11.162;2024-02-15T09:25:19;1.30;;;0.50;;
43809;SDS011;29440;48.208;11.162;2024-02-15T09:27:45;1.10;;;0.68;;
43809;SDS011;29440;48.208;11.162;2024-02-15T09:30:11;1.75;;;0.50;;
43809;SDS011;29440;48.208;11.162;2024-02-15T09:32:41;1.35;;;0.60;;
43809;SDS011;29440;48.208;11.162;2024-02-15T09:35:07;0.90;;;0.50;;
43809;SDS011;29440;48.208;11.162;2024-02-15T09:37:37;1.38;;;0.60;;
43809;SDS011;29440;48.208;11.162;2024-02-15T09:40:09;0.70;;;0.40;;
43809;SDS011;29440;48.208;11.162;2024-02-15T09:42:36;0.73;;;0.50;;
43809;SDS011;29440;48.208;11.162;2024-02-15T09:45:04;0.88;;;0.47;;
43809;SDS011;29440;48.208;11.162;2024-02-15T09:47:34;1.05;;;0.60;;
43809;SDS011;29440;48.208;11.162;2024-02-15T09:50:06;1.13;;;0.60;;
43809;SDS011;29440;48.208;11.162;2024-02-15T09:52:36;1.75;;;0.60;;
43809;SDS011;29440;48.208;11.162;2024-02-15T09:55:04;2.72;;;0.52;;
43809;SDS011;29440;48.208;11.162;2024-02-15T09:57:30;1.38;;;0.60;;
43809;SDS011;29440;48.208;11.162;2024-02-15T10:00:00;1.55;;;0.70;;
43809;SDS011;29440;48.208;11.162;2024-02-15T10:02:28;2.70;;;0.77;;
43809;SDS011;29440;48.208;11.162;2024-02-15T10:04:55;1.63;;;0.60;;
43809;SDS011;29440;48.208;11.162;2024-02-15T10:07:24;1.40;;;0.70;;
43809;SDS011;29440;48.208;11.162;2024-02-15T10:09:52;2.30;;;0.70;;
43809;SDS011;29440;48.208;11.162;2024-02-15T10:12:17;1.20;;;0.73;;
43809;SDS011;29440;48.208;11.162;2024-02-15T10:14:49;2.10;;;0.88;;
43809;SDS011;29440;48.208;11.162;2024-02-15T10:17:20;2.40;;;0.60;;
43809;SDS011;29440;48.208;11.162;2024-02-15T10:20:05;1.98;;;0.70;;
43809;SDS011;29440;48.208;11.162;2024-02-15T10:22:31;2.25;;;0.73;;
43809;SDS011;29440;48.208;11.162;2024-02-15T10:25:12;2.58;;;0.70;;
43809;SDS011;29440;48.208;11.162;2024-02-15T10:27:42;2.03;;;0.77;;
43809;SDS011;29440;48.208;11.162;2024-02-15T10:30:14;2.55;;;0.50;;
43809;SDS011;29440;48.208;11.162;2024-02-15T10:32:41;2.30;;;0.80;;
43809;SDS011;29440;48.208;11.162;2024-02-15T10:35:07;2.25;;;0.50;;
43809;SDS011;29440;48.208;11.162;2024-02-15T10:37:33;1.52;;;0.60;;
43809;SDS011;29440;48.208;11.162;2024-02-15T10:40:05;0.90;;;0.55;;
43809;SDS011;29440;48.208;11.162;2024-02-15T10:42:32;2.75;;;0.60;;
43809;SDS011;29440;48.208;11.162;2024-02-15T10:45:01;0.82;;;0.40;;
43809;SDS011;29440;48.208;11.162;2024-02-15T10:47:29;2.45;;;0.50;;
43809;SDS011;29440;48.208;11.162;2024-02-15T10:49:57;2.25;;;0.40;;
43809;SDS011;29440;48.208;11.162;2024-02-15T10:52:24;2.72;;;0.50;;
43809;SDS011;29440;48.208;11.162;2024-02-15T10:55:04;3.28;;;0.57;;
43809;SDS011;29440;48.208;11.162;2024-02-15T10:57:35;1.10;;;0.45;;
43809;SDS011;29440;48.208;11.162;2024-02-15T11:00:04;1.52;;;0.40;;
43809;SDS011;29440;48.208;11.162;2024-02-15T11:02:41;1.05;;;0.47;;
43809;SDS011;29440;48.208;11.162;2024-02-15T11:05:10;1.00;;;0.50;;
43809;SDS011;29440;48.208;11.162;2024-02-15T11:07:39;1.38;;;0.50;;
43809;SDS011;29440;48.208;11.162;2024-02-15T11:10:06;1.15;;;0.40;;
43809;SDS011;29440;48.208;11.162;2024-02-15T11:12:35;1.92;;;0.40;;
43809;SDS011;29440;48.208;11.162;2024-02-15T11:15:02;1.55;;;0.50;;
43809;SDS011;29440;48.208;11.162;2024-02-15T11:22:57;0.75;;;0.55;;
43809;SDS011;29440;48.208;11.162;2024-02-15T11:25:33;2.13;;;0.50;;
43809;SDS011;29440;48.208;11.162;2024-02-15T11:30:47;2.85;;;0.50;;
43809;SDS011;29440;48.208;11.162;2024-02-15T11:33:29;1.30;;;0.43;;
43809;SDS011;29440;48.208;11.162;2024-02-15T11:36:05;1.33;;;0.57;;
43809;SDS011;29440;48.208;11.162;2024-02-15T11:38:36;0.55;;;0.40;;
43809;SDS011;29440;48.208;11.162;2024-02-15T11:41:06;1.58;;;0.50;;
43809;SDS011;29440;48.208;11.162;2024-02-15T11:46:08;2.10;;;0.60;;
43809;SDS011;29440;48.208;11.162;2024-02-15T11:48:38;0.98;;;0.40;;
43809;SDS011;29440;48.208;11.162;2024-02-15T11:51:04;1.13;;;0.50;;
43809;SDS011;29440;48.208;11.162;2024-02-15T11:53:31;1.42;;;0.65;;
43809;SDS011;29440;48.208;11.162;2024-02-15T11:56:00;1.33;;;0.60;;
43809;SDS011;29440;48.208;11.162;2024-02-15T11:58:30;2.65;;;0.60;;
43809;SDS011;29440;48.208;11.162;2024-02-15T12:01:17;1.48;;;0.60;;
43809;SDS011;29440;48.208;11.162;2024-02-15T12:04:01;2.33;;;0.70;;
43809;SDS011;29440;48.208;11.162;2024-02-15T12:06:46;1.48;;;0.60;;
43809;SDS011;29440;48.208;11.162;2024-02-15T12:09:30;2.55;;;0.70;;
43809;SDS011;29440;48.208;11.162;2024-02-15T12:12:14;3.65;;;0.55;;
43809;SDS011;29440;48.208;11.162;2024-02-15T12:14:59;2.67;;;0.77;;
43809;SDS011;29440;48.208;11.162;2024-02-15T12:17:43;4.47;;;0.50;;
43809;SDS011;29440;48.208;11.162;2024-02-15T12:20:27;1.52;;;0.60;;
43809;SDS011;29440;48.208;11.162;2024-02-15T12:22:53;1.20;;;0.47;;
43809;SDS011;29440;48.208;11.162;2024-02-15T12:25:20;2.55;;;0.60;;
43809;SDS011;29440;48.208;11.162;2024-02-15T12:27:55;1.27;;;0.65;;
43809;SDS011;29440;48.208;11.162;2024-02-15T12:30:21;1.30;;;0.50;;
43809;SDS011;29440;48.208;11.162;2024-02-15T12:32:48;1.33;;;0.50;;
43809;SDS011;29440;48.208;11.162;2024-02-15T12:35:15;3.22;;;0.65;;
43809;SDS011;29440;48.208;11.162;2024-02-15T12:40:30;2.95;;;0.50;;
43809;SDS011;29440;48.208;11.162;2024-02-15T12:42:56;1.63;;;0.50;;
43809;SDS011;29440;48.208;11.162;2024-02-15T12:45:24;2.50;;;0.50;;
43809;SDS011;29440;48.208;11.162;2024-02-15T12:47:55;2.97;;;0.40;;
43809;SDS011;29440;48.208;11.162;2024-02-15T12:50:21;4.22;;;0.70;;
43809;SDS011;29440;48.208;11.162;2024-02-15T12:52:56;1.08;;;0.40;;
43809;SDS011;29440;48.208;11.162;2024-02-15T12:55:28;0.65;;;0.40;;
43809;SDS011;29440;48.208;11.162;2024-02-15T12:57:59;1.38;;;0.50;;
43809;SDS011;29440;48.208;11.162;2024-02-15T13:00:28;1.17;;;0.40;;
43809;SDS011;29440;48.208;11.162;2024-02-15T13:02:57;0.73;;;0.30;;
43809;SDS011;29440;48.208;11.162;2024-02-15T13:05:26;0.88;;;0.40;;
43809;SDS011;29440;48.208;11.162;2024-02-15T13:07:53;1.15;;;0.32;;
43809;SDS011;29440;48.208;11.162;2024-02-15T13:10:30;1.45;;;0.40;;
43809;SDS011;29440;48.208;11.162;2024-02-15T13:12:57;1.55;;;0.30;;
43809;SDS011;29440;48.208;11.162;2024-02-15T13:15:22;0.98;;;0.40;;
43809;SDS011;29440;48.208;11.162;2024-02-15T13:17:53;0.35;;;0.30;;
43809;SDS011;29440;48.208;11.162;2024-02-15T13:20:20;1.05;;;0.30;;
43809;SDS011;29440;48.208;11.162;2024-02-15T13:22:56;1.95;;;0.30;;
43809;SDS011;29440;48.208;11.162;2024-02-15T13:25:25;0.57;;;0.30;;
43809;SDS011;29440;48.208;11.162;2024-02-15T13:27:50;1.83;;;0.40;;
43809;SDS011;29440;48.208;11.162;2024-02-15T13:30:16;0.95;;;0.40;;
43809;SDS011;29440;48.208;11.162;2024-02-15T13:32:48;3.47;;;0.40;;
43809;SDS011;29440;48.208;11.162;2024-02-15T13:35:15;0.57;;;0.40;;
43809;SDS011;29440;48.208;11.162;2024-02-15T13:37:48;1.00;;;0.30;;
43809;SDS011;29440;48.208;11.162;2024-02-15T13:40:19;1.08;;;0.40;;
43809;SDS011;29440;48.208;11.162;2024-02-15T13:42:48;1.27;;;0.30;;
43809;SDS011;29440;48.208;11.162;2024-02-15T13:45:18;1.02;;;0.40;;
43809;SDS011;29440;48.208;11.162;2024-02-15T13:48:02;1.17;;;0.40;;
43809;SDS011;29440;48.208;11.162;2024-02-15T13:50:30;2.30;;;0.60;;
43809;SDS011;29440;48.208;11.162;2024-02-15T13:52:56;1.10;;;0.52;;
43809;SDS011;29440;48.208;11.162;2024-02-15T13:55:25;0.60;;;0.40;;
43809;SDS011;29440;48.208;11.162;2024-02-15T13:57:52;3.28;;;0.60;;
43809;SDS011;29440;48.208;11.162;2024-02-15T14:00:18;1.55;;;0.60;;
43809;SDS011;29440;48.208;11.162;2024-02-15T14:05:18;3.13;;;0.85;;
43809;SDS011;29440;48.208;11.162;2024-02-15T14:07:48;0.80;;;0.40;;
43809;SDS011;29440;48.208;11.162;2024-02-15T14:10:18;1.17;;;0.60;;
43809;SDS011;29440;48.208;11.162;2024-02-15T14:12:46;2.40;;;0.50;;
43809;SDS011;29440;48.208;11.162;2024-02-15T14:15:12;1.83;;;0.57;;
43809;SDS011;29440;48.208;11.162;2024-02-15T14:17:38;1.52;;;0.60;;
43809;SDS011;29440;48.208;11.162;2024-02-15T14:20:04;1.23;;;0.50;;
43809;SDS011;29440;48.208;11.162;2024-02-15T14:22:34;1.77;;;0.40;;
43809;SDS011;29440;48.208;11.162;2024-02-15T14:25:00;0.77;;;0.40;;
43809;SDS011;29440;48.208;11.162;2024-02-15T14:27:26;2.88;;;0.47;;
43809;SDS011;29440;48.208;11.162;2024-02-15T14:29:52;2.88;;;0.40;;
43809;SDS011;29440;48.208;11.162;2024-02-15T14:32:36;2.67;;;0.30;;
43809;SDS011;29440;48.208;11.162;2024-02-15T14:35:20;1.58;;;0.40;;
43809;SDS011;29440;48.208;11.162;2024-02-15T14:37:46;0.65;;;0.50;;
43809;SDS011;29440;48.208;11.162;2024-02-15T14:40:12;3.28;;;0.40;;
43809;SDS011;29440;48.208;11.162;2024-02-15T14:42:40;1.23;;;0.40;;
43809;SDS011;29440;48.208;11.162;2024-02-15T14:45:09;1.67;;;0.50;;
43809;SDS011;29440;48.208;11.162;2024-02-15T14:47:36;1.75;;;0.60;;
43809;SDS011;29440;48.208;11.162;2024-02-15T14:50:02;1.38;;;0.40;;
43809;SDS011;29440;48.208;11.162;2024-02-15T14:52:28;0.95;;;0.47;;
43809;SDS011;29440;48.208;11.162;2024-02-15T14:54:55;1.40;;;0.40;;
43809;SDS011;29440;48.208;11.162;2024-02-15T14:57:21;1.23;;;0.50;;